Have a Safe July 4th! 

Flight Track Log - Related Links

Times and Time Zones

All times are in EDT time to prevent confusion due to time zone crossing. See the UAL4086 flight status page for this flight to view local times or setup timezone preferences in your user account.

Time Position Orientation Groundspeed Altitude Reporting Facility
EDT Latitude Longitude Course Direction KTS MPH feet Rate Location/Type
Fri 07:10:17 AM 34.5650 -86.8364 231° Southwest 202 232 5,000  Level Memphis Center
Fri 07:11:00 AM 34.4959 -86.9728 231° Southwest  Level FlightAware Approximate
Fri 07:11:17 AM 34.5311 -86.8908 233° Southwest 197 227 7,300  Level Memphis Center
Fri 07:12:00 AM 34.4507 -87.0422 233° Southwest  Level FlightAware Approximate
Fri 07:12:17 AM 34.4992 -86.9425 233° Southwest 202 232 9,800  Level Memphis Center
Fri 07:13:00 AM 34.4067 -87.1127 233° Southwest  Level FlightAware Approximate
Fri 07:13:17 AM 34.4611 -86.9969 230° Southwest 202 232 11,700  Level Memphis Center
Fri 07:14:00 AM 34.3619 -87.1823 231° Southwest  Level FlightAware Approximate
Fri 07:14:17 AM 34.4250 -87.0561 234° Southwest 207 238 13,600  Level Memphis Center
Fri 07:15:00 AM 34.3161 -87.2510 231° Southwest  Level FlightAware Approximate
Fri 07:15:17 AM 34.3872 -87.1206 235° Southwest 224 258 15,500  Level Memphis Center
Fri 07:16:17 AM 34.3469 -87.1800 231° Southwest 229 264 17,500 1,650 Climbing Memphis Center
Fri 07:17:17 AM 34.3028 -87.2469 231° Southwest 234 269 18,800 950 Climbing Memphis Center
Fri 07:18:17 AM 34.2586 -87.3214 234° Southwest 258 297 19,400 650 Climbing Memphis Center
Fri 07:19:17 AM 34.2103 -87.3961 232° Southwest 280 322 20,100 700 Climbing Memphis Center
Fri 07:20:17 AM 34.1539 -87.4808 231° Southwest 312 359 20,800 750 Climbing Memphis Center
Fri 07:21:17 AM 34.1056 -87.5600 234° Southwest 328 377 21,600 900 Climbing Memphis Center
Fri 07:22:17 AM 34.0511 -87.6472 233° Southwest 328 377 22,600 1,000 Climbing Memphis Center
Fri 07:23:17 AM 33.9947 -87.7317 231° Southwest 328 377 23,600 1,050 Climbing Memphis Center
Fri 07:24:17 AM 33.9400 -87.8158 232° Southwest 328 377 24,700 1,050 Climbing Memphis Center
Fri 07:25:17 AM 33.8833 -87.9000 231° Southwest 333 383 25,700 1,000 Climbing Memphis Center
Fri 07:26:17 AM 33.8347 -87.9814 234° Southwest 326 375 26,700 1,000 Climbing Memphis Center
Fri 07:27:17 AM 33.7697 -88.0783 231° Southwest 326 375 27,700 1,000 Climbing Memphis Center
Fri 07:28:17 AM 33.7169 -88.1594 232° Southwest 326 375 28,700 1,000 Climbing Memphis Center
Fri 07:29:17 AM 33.6642 -88.2408 232° Southwest 326 375 29,700 1,150 Climbing Memphis Center
Fri 07:30:17 AM 33.6111 -88.3219 232° Southwest 319 367 31,000 1,650 Climbing Memphis Center
Fri 07:31:17 AM 33.5622 -88.3953 231° Southwest 313 360 33,000 1,500 Climbing Memphis Center
Fri 07:32:17 AM 33.5239 -88.4658 237° Southwest 302 348 34,000 500 Climbing Memphis Center
Fri 07:33:17 AM 33.4728 -88.5417 231° Southwest 295 339 34,000 750 Level Memphis Center
Fri 07:34:17 AM 33.4239 -88.6250 235° Southwest 300 345 35,500 1,000 Climbing Memphis Center
Fri 07:35:17 AM 33.3789 -88.7028 235° Southwest 300 345 36,000 250 Climbing Memphis Center
Fri 07:36:17 AM 33.3300 -88.7883 236° Southwest 305 351 36,000  Level Memphis Center
Fri 07:37:17 AM 33.2767 -88.8786 235° Southwest 316 364 36,000  Level Memphis Center
Fri 07:38:17 AM 33.2256 -88.9667 235° Southwest 322 371 36,000  Level Memphis Center
Fri 07:39:17 AM 33.1722 -89.0542 234° Southwest 327 376 36,000  Level Memphis Center
Fri 07:40:17 AM 33.1211 -89.1442 236° Southwest 332 382 36,000  Level Memphis Center
Fri 07:41:17 AM 33.0697 -89.2317 235° Southwest 332 382 36,000  Level Memphis Center
Fri 07:42:17 AM 33.0161 -89.3217 235° Southwest 338 389 36,000  Level Memphis Center
Fri 07:43:17 AM 32.9625 -89.4089 234° Southwest 338 389 36,000  Level Memphis Center
Fri 07:44:17 AM 32.9111 -89.4961 235° Southwest 338 389 36,000  Level Memphis Center
Fri 07:45:17 AM 32.8575 -89.5856 235° Southwest 338 389 36,000  Level Memphis Center
Fri 07:46:17 AM 32.8036 -89.6703 233° Southwest 338 389 36,000  Level Memphis Center
Fri 07:47:17 AM 32.7519 -89.7594 235° Southwest 338 389 36,000  Level Memphis Center
Fri 07:48:17 AM 32.7000 -89.8464 235° Southwest 338 389 36,000  Level Memphis Center
Fri 07:49:17 AM 32.6503 -89.9306 235° Southwest 333 383 36,000  Level Memphis Center
Fri 07:50:17 AM 32.6006 -90.0144 235° Southwest 333 383 36,000  Level Memphis Center
Fri 07:51:17 AM 32.5483 -90.0986 234° Southwest 327 376 36,000  Level Memphis Center
Fri 07:52:17 AM 32.5006 -90.1800 235° Southwest 321 369 36,000  Level Memphis Center
Fri 07:53:17 AM 32.4547 -90.2661 238° Southwest 316 364 36,000  Level Memphis Center
Fri 07:54:17 AM 32.4108 -90.3525 239° Southwest 316 364 36,000  Level Memphis Center
Fri 07:55:17 AM 32.3650 -90.4408 238° Southwest 316 364 36,000  Level Memphis Center
Fri 07:56:17 AM 32.3211 -90.5244 238° Southwest 316 364 36,000  Level Memphis Center
Fri 07:57:17 AM 32.2731 -90.6153 238° Southwest 316 364 36,000  Level Memphis Center
Fri 07:58:17 AM 32.2267 -90.7061 239° Southwest 321 369 36,000  Level Memphis Center
Fri 08:00:20 AM 32.1322 -90.8844 238° Southwest 325 374 36,000  Level Houston Center
Fri 08:01:21 AM 32.0850 -90.9744 238° Southwest 323 372 36,000  Level Houston Center
Fri 08:02:22 AM 32.0386 -91.0644 239° Southwest 322 371 36,000  Level Houston Center
Fri 08:03:23 AM 31.9811 -91.1717 238° Southwest 322 371 36,000  Level Houston Center
Fri 08:04:24 AM 31.9344 -91.2606 238° Southwest 322 371 36,000  Level Houston Center
Fri 08:05:25 AM 31.8869 -91.3492 238° Southwest 321 369 36,000  Level Houston Center
Fri 08:06:26 AM 31.8381 -91.4369 237° Southwest 320 368 36,000  Level Houston Center
Fri 08:07:27 AM 31.7897 -91.5256 237° Southwest 322 371 36,000  Level Houston Center
Fri 08:08:28 AM 31.7417 -91.6133 237° Southwest 320 368 36,000  Level Houston Center
Fri 08:09:29 AM 31.6953 -91.7028 239° Southwest 321 369 36,000 -344 Level Houston Center
Fri 08:10:30 AM 31.6469 -91.7900 237° Southwest 320 368 35,300 -885 Descending Houston Center
Fri 08:11:31 AM 31.6000 -91.8761 237° Southwest 316 364 34,200 -639 Descending Houston Center
Fri 08:12:32 AM 31.5517 -91.9658 238° Southwest 322 371 34,000 -98 Descending Houston Center
Fri 08:13:33 AM 31.5019 -92.0572 237° Southwest 330 380 34,000  Level Houston Center
Fri 08:14:34 AM 31.4419 -92.1658 237° Southwest 331 381 34,000  Level Houston Center
Fri 08:15:36 AM 31.3931 -92.2542 237° Southwest 326 375 34,000  Level Houston Center
Fri 08:16:37 AM 31.3422 -92.3458 237° Southwest 331 381 34,000  Level Houston Center
Fri 08:17:38 AM 31.2919 -92.4364 237° Southwest 337 388 34,000  Level Houston Center
Fri 08:18:39 AM 31.2414 -92.5286 237° Southwest 338 389 34,000  Level Houston Center
Fri 08:19:40 AM 31.1847 -92.6300 237° Southwest 339 390 34,000  Level Houston Center
Fri 08:20:42 AM 31.1328 -92.7228 237° Southwest 340 391 34,000 -293 Level Houston Center
Fri 08:21:43 AM 31.0825 -92.8131 237° Southwest 335 386 33,400 -738 Descending Houston Center
Fri 08:22:44 AM 31.0300 -92.9061 237° Southwest 340 391 32,500 -934 Descending Houston Center
Fri 08:23:45 AM 30.9769 -93.0003 237° Southwest 346 398 31,500 -976 Descending Houston Center
Fri 08:24:47 AM 30.9244 -93.0950 237° Southwest 349 402 30,500 -927 Descending Houston Center
Fri 08:25:48 AM 30.8697 -93.1903 236° Southwest 351 404 29,600 -934 Descending Houston Center
Fri 08:26:49 AM 30.8172 -93.2825 236° Southwest 344 396 28,600 -976 Descending Houston Center
Fri 08:27:51 AM 30.7650 -93.3750 237° Southwest 343 395 27,600 -1,024 Descending Houston Center
Fri 08:28:52 AM 30.6992 -93.4900 236° Southwest 357 411 26,500 -976 Descending Houston Center
Fri 08:29:54 AM 30.6494 -93.5783 237° Southwest 354 407 25,600 -927 Descending Houston Center
Fri 08:30:55 AM 30.5950 -93.6731 236° Southwest 353 406 24,600 -1,180 Descending Houston Center
Fri 08:31:56 AM 30.5408 -93.7686 237° Southwest 353 406 23,200 -1,610 Descending Houston Center
Fri 08:32:58 AM 30.4875 -93.8625 237° Southwest 350 403 21,300 -1,561 Descending Houston Center
Fri 08:33:59 AM 30.4356 -93.9531 236° Southwest 338 389 20,000 -634 Descending Houston Center
Fri 08:35:01 AM 30.3697 -94.0658 236° Southwest 349 402 20,000 -263 Level Houston Center
Fri 08:35:53 AM 30.3236 -94.1444 236° Southwest 345 397 19,500 -2,150 Descending Houston Center
Fri 08:37:01 AM 30.2714 -94.2339 236° Southwest 288 331 15,700 -3,116 Descending Houston Center
Fri 08:38:02 AM 30.2325 -94.3067 238° Southwest 272 313 12,800 -2,286 Descending Houston Center
Fri 08:39:07 AM 30.1989 -94.3942 246° West 283 326 10,900 -1,476 Descending Houston Center
Fri 08:40:08 AM 30.1733 -94.4578 245° Southwest 247 284 9,700 -1,366 Descending Houston Center
Fri 08:41:10 AM 30.1411 -94.5417 246° West 238 274 8,100 -878 Descending Houston Center
Fri 08:42:11 AM 30.1164 -94.6169 249° West 249 287 7,900  Descending Houston Center
Fri 08:43:07 AM 30.0933 -94.6875 249° West 241 277 8,100 98 Climbing Houston Center
Fri 08:44:14 AM 30.0675 -94.7706 250° West 248 285 8,100 -141 Level Houston Center
Fri 08:45:15 AM 30.0414 -94.8464 248° West 253 291 7,800 -689 Descending Houston Center
Fri 08:46:16 AM 30.0153 -94.9269 249° West 254 292 6,700 -1,073 Descending Houston Center
Fri 08:47:18 AM 29.9908 -95.0022 249° West 251 289 5,600 -1,073 Descending Houston Center
Fri 08:48:19 AM 29.9942 -95.0814 273° West 238 274 4,500 -1,190 Descending Houston Center
Fri 08:49:14 AM 29.9919 -95.1492 268° West 237 273 3,300 -1,309 Descending Houston Center

Login

Don't have an account? Register now (free) for customized features, flight alerts, and more!